Time;durP1;ratioP1;P1;durP2;ratioP2;P2;SDS_P1;SDS_P2;PMS_P1;PMS_P2;Temp;Humidity;BMP_temperature;BMP_pressure;BME280_temperature;BME280_humidity;BME280_pressure;Samples;Min_cycle;Max_cycle;Signal;HPM_P1;HPM_P2
2023/09/13 00:02:14;;;;;;;8.88;5.10;;;;;;;19.93;100.00;101155.94;5000649;28;20036;-83
2023/09/13 00:04:39;;;;;;;7.05;5.22;;;;;;;19.94;100.00;101164.00;4980502;28;20579;-82
2023/09/13 00:07:04;;;;;;;8.65;5.15;;;;;;;19.94;100.00;101161.16;4985522;28;20589;-83
2023/09/13 00:09:30;;;;;;;10.68;5.35;;;;;;;19.92;100.00;101149.41;4985909;28;20127;-83
2023/09/13 00:11:55;;;;;;;8.02;4.32;;;;;;;19.89;100.00;101145.41;5005213;28;20022;-83
2023/09/13 00:14:21;;;;;;;7.82;5.00;;;;;;;19.90;100.00;101147.03;4987312;28;20062;-85
2023/09/13 00:16:46;;;;;;;8.32;5.50;;;;;;;19.89;100.00;101144.63;4968878;28;20084;-83
2023/09/13 00:19:12;;;;;;;8.20;4.82;;;;;;;19.89;100.00;101141.78;4985228;28;20045;-82
2023/09/13 00:21:42;;;;;;;8.60;4.78;;;;;;;19.88;100.00;101143.00;4986289;28;20109;-82
2023/09/13 00:24:08;;;;;;;10.77;5.68;;;;;;;19.87;100.00;101141.41;4982517;28;20058;-82
2023/09/13 00:26:34;;;;;;;9.65;4.63;;;;;;;19.84;100.00;101150.81;4992555;28;21078;-83
2023/09/13 00:28:59;;;;;;;7.22;4.35;;;;;;;19.82;100.00;101145.56;4981395;28;20034;-83
2023/09/13 00:31:25;;;;;;;9.73;4.35;;;;;;;19.86;100.00;101142.66;4983488;28;20074;-83
2023/09/13 00:33:50;;;;;;;5.63;4.57;;;;;;;19.85;100.00;101152.41;4983948;28;20461;-83
2023/09/13 00:36:16;;;;;;;9.75;5.00;;;;;;;19.83;100.00;101149.22;4987042;28;20533;-82
2023/09/13 00:38:41;;;;;;;6.53;4.35;;;;;;;19.82;100.00;101158.97;4988668;28;20050;-83
2023/09/13 00:41:06;;;;;;;9.52;4.68;;;;;;;19.80;100.00;101158.63;4978618;28;20076;-82
2023/09/13 00:43:32;;;;;;;8.15;4.75;;;;;;;19.79;100.00;101169.16;4976432;28;20061;-83
2023/09/13 00:45:58;;;;;;;9.93;4.95;;;;;;;19.81;100.00;101158.16;4986377;28;20402;-84
2023/09/13 00:48:24;;;;;;;5.97;5.25;;;;;;;19.76;100.00;101157.88;4979351;28;20026;-83
2023/09/13 00:50:50;;;;;;;10.00;4.45;;;;;;;19.76;100.00;101163.56;4982260;28;20128;-84
2023/09/13 00:53:17;;;;;;;7.95;4.40;;;;;;;19.76;100.00;101169.25;4981702;28;20044;-83
2023/09/13 00:55:43;;;;;;;6.32;4.78;;;;;;;19.75;100.00;101167.63;4984307;28;20450;-83
2023/09/13 00:58:09;;;;;;;10.30;5.05;;;;;;;19.73;100.00;101165.22;4984890;28;20081;-84
2023/09/13 01:00:36;;;;;;;11.40;5.63;;;;;;;19.71;100.00;101162.00;4979644;28;20089;-84
2023/09/13 01:03:04;;;;;;;8.38;5.07;;;;;;;19.73;100.00;101164.41;4981571;28;20046;-83
2023/09/13 01:05:30;;;;;;;12.05;7.03;;;;;;;19.72;100.00;101162.81;4983500;28;20026;-83
2023/09/13 01:07:56;;;;;;;8.68;5.70;;;;;;;19.67;100.00;101159.22;4986528;28;20017;-83
2023/09/13 01:10:21;;;;;;;9.93;5.72;;;;;;;19.66;100.00;101165.31;4985744;28;20030;-83
2023/09/13 01:12:46;;;;;;;10.25;6.78;;;;;;;19.65;100.00;101170.22;4983350;28;20454;-83
2023/09/13 01:15:12;;;;;;;8.25;5.10;;;;;;;;;;5003477;28;20375;-83
2023/09/13 01:18:03;;;;;;;7.47;5.18;;;;;;;19.67;100.00;101166.94;5012008;28;20070;-84
2023/09/13 01:20:34;;;;;;;7.85;5.30;;;;;;;19.67;100.00;101170.56;4983803;28;20038;-84
2023/09/13 01:23:08;;;;;;;7.68;5.63;;;;;;;19.65;100.00;101167.38;4989158;28;20502;-84
2023/09/13 01:25:45;;;;;;;11.10;5.10;;;;;;;19.62;100.00;101161.75;4998081;28;20466;-83
2023/09/13 01:28:18;;;;;;;11.23;6.38;;;;;;;19.61;100.00;101152.44;5004240;28;20133;-83
2023/09/13 01:30:44;;;;;;;11.52;6.13;;;;;;;19.59;100.00;101160.59;4971566;28;20042;-83
2023/09/13 01:33:09;;;;;;;6.65;5.50;;;;;;;19.61;100.00;101151.63;4999134;28;20505;-84
2023/09/13 01:35:35;;;;;;;9.85;5.68;;;;;;;19.58;100.00;101156.13;5002857;28;20041;-83
2023/09/13 01:38:00;;;;;;;9.57;6.25;;;;;;;19.58;100.00;101158.16;5008494;28;20096;-84
2023/09/13 01:40:32;;;;;;;12.80;6.10;;;;;;;19.56;100.00;101154.97;4989987;28;20429;-83
2023/09/13 01:43:00;;;;;;;11.27;6.75;;;;;;;19.52;100.00;101149.34;4990100;28;20033;-84
2023/09/13 01:45:25;;;;;;;15.88;6.65;;;;;;;19.56;100.00;101150.06;4988192;28;20076;-83
2023/09/13 01:47:52;;;;;;;11.20;6.93;;;;;;;19.53;100.00;101147.31;4984223;28;20512;-84
2023/09/13 01:50:18;;;;;;;15.38;6.82;;;;;;;19.54;100.00;101152.53;5005276;28;20072;-84
2023/09/13 01:52:44;;;;;;;14.52;8.35;;;;;;;19.54;100.00;101151.75;5003017;28;20147;-83
2023/09/13 01:55:10;;;;;;;12.02;6.05;;;;;;;19.54;100.00;101151.75;5004821;28;20041;-84
2023/09/13 01:57:35;;;;;;;12.95;7.90;;;;;;;19.55;100.00;101162.69;4984125;28;20072;-83
2023/09/13 02:00:01;;;;;;;10.57;6.38;;;;;;;19.52;100.00;101163.53;4983831;28;20117;-85
2023/09/13 02:02:26;;;;;;;9.43;6.25;;;;;;;19.53;100.00;101165.16;4997668;28;20038;-84
2023/09/13 02:04:52;;;;;;;9.75;6.35;;;;;;;19.45;100.00;101161.63;5002604;28;20088;-84
2023/09/13 02:07:17;;;;;;;15.57;8.50;;;;;;;19.53;100.00;101165.16;4991043;28;20022;-84
2023/09/13 02:09:43;;;;;;;13.88;6.97;;;;;;;19.50;100.00;101163.16;5001636;28;20449;-84
2023/09/13 02:12:12;;;;;;;13.75;7.13;;;;;;;19.53;100.00;101165.16;4983943;28;20120;-83
2023/09/13 02:14:38;;;;;;;13.07;6.63;;;;;;;19.48;100.00;101159.97;5004364;28;20042;-83
2023/09/13 02:17:04;;;;;;;12.45;7.68;;;;;;;19.50;100.00;101161.16;4986817;28;20030;-83
2023/09/13 02:19:29;;;;;;;12.98;6.95;;;;;;;19.52;100.00;101162.75;4990822;28;20056;-84
2023/09/13 02:21:55;;;;;;;13.52;7.47;;;;;;;19.52;100.00;101165.56;5007808;28;20030;-83
2023/09/13 02:24:20;;;;;;;12.07;7.25;;;;;;;19.52;100.00;101159.91;4993780;28;20052;-84
2023/09/13 02:26:46;;;;;;;20.05;9.50;;;;;;;19.46;100.00;101168.13;4991745;28;20034;-83
2023/09/13 02:29:11;;;;;;;18.33;7.70;;;;;;;19.51;100.00;101164.78;4990450;28;20040;-83
2023/09/13 02:31:37;;;;;;;15.02;8.00;;;;;;;19.53;100.00;101161.53;4989485;28;20041;-83
2023/09/13 02:34:03;;;;;;;14.82;7.90;;;;;;;19.51;100.00;101164.78;5008474;28;20034;-84
2023/09/13 02:36:28;;;;;;;15.35;8.52;;;;;;;19.49;100.00;101172.94;5015862;28;20397;-83
2023/09/13 02:38:54;;;;;;;12.10;7.70;;;;;;;19.46;100.00;101157.56;4992866;28;20068;-84
2023/09/13 02:41:19;;;;;;;10.88;7.43;;;;;;;19.54;100.00;101168.78;4987453;28;20042;-84
2023/09/13 02:43:45;;;;;;;13.35;9.30;;;;;;;19.41;100.00;101177.13;4991675;28;20573;-83
2023/09/13 02:46:10;;;;;;;15.45;7.60;;;;;;;19.45;100.00;101170.16;5006643;28;20030;-83
2023/09/13 02:48:36;;;;;;;13.07;7.95;;;;;;;19.21;100.00;101163.69;5001317;28;20152;-84
2023/09/13 02:51:02;;;;;;;13.20;7.72;;;;;;;19.43;100.00;101180.34;5004507;28;20371;-83
2023/09/13 02:53:28;;;;;;;12.10;7.55;;;;;;;19.38;100.00;101172.31;5008826;28;20030;-84
2023/09/13 02:56:03;;;;;;;14.70;7.95;;;;;;;19.44;100.00;101171.41;4993293;28;20022;-83
2023/09/13 02:58:28;;;;;;;18.80;8.40;;;;;;;19.39;100.00;101173.91;5004364;28;20022;-83
2023/09/13 03:00:54;;;;;;;17.35;8.32;;;;;;;19.32;100.00;101165.53;4986154;28;20041;-83
2023/09/13 03:03:19;;;;;;;18.52;8.50;;;;;;;19.36;100.00;101174.78;5008590;28;20034;-84
2023/09/13 03:05:44;;;;;;;18.55;8.80;;;;;;;19.43;100.00;101172.63;5007920;28;20890;-83
2023/09/13 03:08:10;;;;;;;14.38;7.93;;;;;;;19.48;100.00;101174.19;4987431;28;20032;-83
2023/09/13 03:10:37;;;;;;;16.65;8.98;;;;;;;19.50;100.00;101163.16;4987490;28;20233;-83
2023/09/13 03:13:02;;;;;;;16.40;9.70;;;;;;;19.53;100.00;101179.34;4997161;28;20128;-83
2023/09/13 03:15:32;;;;;;;19.30;8.35;;;;;;;19.54;100.00;101163.09;4988618;28;20037;-84
2023/09/13 03:17:57;;;;;;;14.88;8.63;;;;;;;19.54;100.00;101169.56;5006696;28;20041;-83
2023/09/13 03:20:23;;;;;;;16.42;9.27;;;;;;;19.48;100.00;101159.97;5003710;28;20030;-83
2023/09/13 03:22:48;;;;;;;20.10;10.35;;;;;;;19.40;100.00;101164.97;5008251;28;20037;-83
2023/09/13 03:25:13;;;;;;;17.92;10.13;;;;;;;19.40;100.00;101172.69;4983688;28;20564;-83
2023/09/13 03:27:39;;;;;;;18.98;10.48;;;;;;;19.25;100.00;101149.44;4985060;28;20021;-84
2023/09/13 03:30:05;;;;;;;15.80;9.00;;;;;;;19.18;100.00;101149.53;4989009;28;20037;-84
2023/09/13 03:32:33;;;;;;;15.70;10.02;;;;;;;19.32;100.00;101162.69;4987221;28;20466;-84
2023/09/13 03:34:59;;;;;;;17.73;8.90;;;;;;;19.45;100.00;101161.63;5008401;28;20049;-84
2023/09/13 03:37:24;;;;;;;20.23;8.95;;;;;;;19.52;100.00;101165.56;4984419;28;20137;-85
2023/09/13 03:39:49;;;;;;;17.55;9.73;;;;;;;19.38;100.00;101158.94;4988588;28;20508;-84
2023/09/13 03:42:14;;;;;;;20.83;10.63;;;;;;;19.27;100.00;101155.47;4990689;28;20439;-84
2023/09/13 03:44:40;;;;;;;19.33;10.90;;;;;;;19.14;100.00;101163.78;5004189;28;20046;-84
2023/09/13 03:47:05;;;;;;;23.42;10.00;;;;;;;19.17;100.00;101150.78;5003866;28;20099;-84
2023/09/13 03:49:31;;;;;;;22.15;11.98;;;;;;;19.16;100.00;101164.16;4989003;28;20038;-84
2023/09/13 03:51:56;;;;;;;16.45;9.85;;;;;;;19.09;100.00;101155.78;4990549;28;20030;-84
2023/09/13 03:54:22;;;;;;;18.58;11.07;;;;;;;18.98;100.00;101143.81;4992878;28;20437;-84
2023/09/13 03:56:47;;;;;;;21.27;12.15;;;;;;;18.98;100.00;101149.47;5004467;28;20433;-84
2023/09/13 03:59:13;;;;;;;20.92;10.38;;;;;;;19.06;100.00;101145.28;5005330;28;21107;-84
2023/09/13 04:01:38;;;;;;;17.88;10.27;;;;;;;18.92;100.00;101146.31;4987480;28;20030;-85
2023/09/13 04:04:04;;;;;;;17.33;10.50;;;;;;;19.06;100.00;101139.63;5005401;28;20121;-84
2023/09/13 04:06:30;;;;;;;19.65;10.57;;;;;;;19.03;100.00;101143.31;4979790;28;20065;-84
2023/09/13 04:08:55;;;;;;;15.20;8.93;;;;;;;18.98;100.00;101138.94;4989139;28;20033;-83
2023/09/13 04:11:21;;;;;;;15.88;9.10;;;;;;;19.07;100.00;101144.03;4985636;28;20537;-83
2023/09/13 04:13:46;;;;;;;15.57;9.63;;;;;;;19.23;100.00;101134.88;4988037;28;20632;-84
2023/09/13 04:16:15;;;;;;;19.73;10.90;;;;;;;19.00;100.00;101132.84;4983802;28;20729;-82
2023/09/13 04:18:40;;;;;;;18.17;10.60;;;;;;;18.78;100.00;101126.66;4998035;28;20037;-81
2023/09/13 04:21:06;;;;;;;20.65;10.30;;;;;;;18.89;100.00;101136.63;4999910;28;20030;-82
2023/09/13 04:23:31;;;;;;;20.27;10.52;;;;;;;19.11;100.00;101136.28;4987168;28;20076;-81
2023/09/13 04:25:56;;;;;;;19.73;11.15;;;;;;;18.95;100.00;101133.31;5003932;28;20068;-82
2023/09/13 04:28:22;;;;;;;21.27;10.85;;;;;;;18.80;100.00;101122.19;5004082;28;20029;-83
2023/09/13 04:30:47;;;;;;;18.60;11.32;;;;;;;18.95;100.00;101133.31;4985302;28;20029;-82
2023/09/13 04:33:13;;;;;;;24.25;11.80;;;;;;;18.83;100.00;101121.34;5007753;28;20041;-82
2023/09/13 04:35:38;;;;;;;21.65;12.57;;;;;;;18.81;100.00;101123.78;5004112;28;20413;-82
2023/09/13 04:38:04;;;;;;;20.35;11.80;;;;;;;19.05;100.00;101118.16;5005128;28;20030;-81
2023/09/13 04:40:29;;;;;;;18.48;10.18;;;;;;;19.02;100.00;101121.84;5005389;28;20025;-81
2023/09/13 04:42:57;;;;;;;23.25;11.65;;;;;;;19.12;100.00;101132.22;4997418;28;20026;-81
2023/09/13 04:45:23;;;;;;;17.63;10.63;;;;;;;19.07;100.00;101121.34;4983360;28;20045;-81
2023/09/13 04:47:49;;;;;;;20.38;11.68;;;;;;;18.91;100.00;101118.38;4994266;28;20436;-82
2023/09/13 04:50:14;;;;;;;19.00;11.63;;;;;;;19.11;100.00;101113.59;5001433;28;20050;-82
2023/09/13 04:52:39;;;;;;;17.30;10.82;;;;;;;19.15;100.00;101116.38;5005638;28;20044;-82
2023/09/13 04:55:05;;;;;;;18.55;11.15;;;;;;;18.97;100.00;101120.28;4991571;28;20021;-82
2023/09/13 04:57:31;;;;;;;18.23;11.32;;;;;;;18.95;100.00;101121.97;5000383;28;20597;-82
2023/09/13 04:59:56;;;;;;;18.00;10.40;;;;;;;18.92;100.00;101122.84;4989140;28;20037;-82
2023/09/13 05:02:21;;;;;;;20.98;12.88;;;;;;;18.76;100.00;101121.41;4997428;28;20398;-83
2023/09/13 05:04:47;;;;;;;18.40;11.38;;;;;;;18.76;100.00;101120.59;4988821;28;20485;-83
2023/09/13 05:07:12;;;;;;;20.52;10.77;;;;;;;18.80;100.00;101127.06;4999235;28;20112;-83
2023/09/13 05:09:38;;;;;;;18.42;10.73;;;;;;;18.96;100.00;101127.22;4976664;28;20036;-82
2023/09/13 05:12:04;;;;;;;18.75;10.77;;;;;;;19.10;100.00;101129.03;4999855;28;20659;-82
2023/09/13 05:14:29;;;;;;;20.55;11.88;;;;;;;19.04;100.00;101125.06;4977545;28;20038;-81
2023/09/13 05:16:55;;;;;;;22.10;11.80;;;;;;;18.86;100.00;101126.13;4999588;28;20397;-82
2023/09/13 05:19:20;;;;;;;17.90;11.93;;;;;;;18.84;100.00;101122.94;5003988;28;20505;-82
2023/09/13 05:21:47;;;;;;;21.65;13.38;;;;;;;18.84;100.00;101128.59;5010452;28;20093;-82
2023/09/13 05:24:12;;;;;;;19.65;12.32;;;;;;;18.88;100.00;101123.66;4997100;28;20033;-82
2023/09/13 05:26:38;;;;;;;20.40;12.80;;;;;;;18.75;100.00;101116.97;5007141;28;20037;-82
2023/09/13 05:29:03;;;;;;;22.75;13.35;;;;;;;18.80;100.00;101132.72;5010785;28;20062;-82
2023/09/13 05:31:29;;;;;;;19.60;12.25;;;;;;;18.85;100.00;101130.22;4984421;28;20030;-82
2023/09/13 05:33:54;;;;;;;22.30;13.10;;;;;;;18.93;100.00;101135.75;5005901;28;20034;-82
2023/09/13 05:36:19;;;;;;;19.02;11.63;;;;;;;18.76;100.00;101166.78;4988715;28;20022;-81
2023/09/13 05:38:45;;;;;;;12.65;7.88;;;;;;;18.76;100.00;101192.28;4975966;28;20030;-83
2023/09/13 05:41:12;;;;;;;10.65;4.65;;;;;;;18.70;100.00;101222.38;4995793;28;20036;-81
2023/09/13 05:43:39;;;;;;;7.72;2.33;;;;;;;18.62;100.00;101227.34;4999994;28;20031;-82
2023/09/13 05:46:06;;;;;;;4.25;1.00;;;;;;;18.42;100.00;101249.84;5000713;28;20030;-81
2023/09/13 05:48:31;;;;;;;2.90;0.75;;;;;;;18.28;100.00;101242.34;5006050;28;20499;-82
2023/09/13 05:50:57;;;;;;;2.40;1.20;;;;;;;18.35;100.00;101249.16;5001743;28;20618;-82
2023/09/13 05:53:22;;;;;;;4.53;1.05;;;;;;;17.84;100.00;101254.53;4983791;28;20033;-84
2023/09/13 05:55:48;;;;;;;2.65;1.35;;;;;;;17.74;100.00;101232.75;4979925;28;20216;-81
2023/09/13 05:58:14;;;;;;;3.08;1.40;;;;;;;17.27;100.00;101255.78;4997814;28;20116;-81
2023/09/13 06:00:43;;;;;;;3.88;1.10;;;;;;;17.18;100.00;101270.41;4999319;28;20591;-84
2023/09/13 06:03:09;;;;;;;1.55;1.15;;;;;;;17.37;100.00;101273.91;4992220;28;20069;-82
2023/09/13 06:05:35;;;;;;;5.10;1.35;;;;;;;17.24;100.00;101294.22;4979674;28;20128;-84
2023/09/13 06:08:00;;;;;;;3.15;1.02;;;;;;;17.16;100.00;101312.44;4980680;28;20429;-84
2023/09/13 06:10:26;;;;;;;2.65;1.05;;;;;;;17.15;100.00;101324.97;4976076;28;20116;-84
2023/09/13 06:12:51;;;;;;;4.00;1.02;;;;;;;17.00;100.00;101314.97;4980898;28;20255;-84
2023/09/13 06:15:18;;;;;;;1.65;0.90;;;;;;;17.03;100.00;101314.13;5002907;28;20065;-83
2023/09/13 06:17:43;;;;;;;4.53;1.15;;;;;;;17.17;100.00;101325.34;4986915;28;20088;-83
2023/09/13 06:20:09;;;;;;;1.55;0.90;;;;;;;17.19;100.00;101342.72;5002751;28;20433;-84
2023/09/13 06:22:34;;;;;;;4.72;1.55;;;;;;;16.95;100.00;101352.13;5004955;28;20061;-85
2023/09/13 06:25:00;;;;;;;2.42;0.90;;;;;;;16.98;100.00;101359.81;5000764;28;20148;-83
2023/09/13 06:27:25;;;;;;;2.95;1.55;;;;;;;16.79;100.00;101367.50;5001179;28;20025;-85
2023/09/13 06:29:50;;;;;;;2.17;1.15;;;;;;;16.87;100.00;101374.00;4989631;28;20477;-85
2023/09/13 06:32:16;;;;;;;1.90;1.10;;;;;;;16.85;100.00;101380.03;4998215;28;20030;-85
2023/09/13 06:34:41;;;;;;;1.95;1.08;;;;;;;16.79;100.00;101394.97;4983868;28;20393;-82
2023/09/13 06:37:07;;;;;;;3.45;1.02;;;;;;;16.62;100.00;101376.88;5001649;28;20041;-82
2023/09/13 06:39:34;;;;;;;4.05;1.33;;;;;;;15.93;100.00;101390.25;4981351;28;20494;-82
2023/09/13 06:42:00;;;;;;;1.75;0.90;;;;;;;16.04;100.00;101393.88;4997196;28;20022;-82
2023/09/13 06:44:25;;;;;;;2.90;1.05;;;;;;;15.82;100.00;101409.19;5002988;28;20033;-82
2023/09/13 06:46:50;;;;;;;2.35;1.08;;;;;;;15.94;100.00;101403.16;5004372;28;20033;-82
2023/09/13 06:49:16;;;;;;;1.10;0.82;;;;;;;16.06;100.00;101410.41;5003438;28;20445;-82
2023/09/13 06:51:41;;;;;;;2.05;1.02;;;;;;;15.93;100.00;101410.00;5006843;28;20038;-83
2023/09/13 06:54:06;;;;;;;3.35;1.50;;;;;;;16.14;100.00;101426.16;5002973;28;20065;-83
2023/09/13 06:56:32;;;;;;;3.60;1.10;;;;;;;15.85;100.00;101433.78;5006461;28;20036;-83
2023/09/13 06:58:57;;;;;;;3.20;0.93;;;;;;;15.88;100.00;101441.47;5002921;28;20026;-84
2023/09/13 07:01:22;;;;;;;1.13;0.80;;;;;;;15.93;100.00;101441.06;5000772;28;20109;-83
2023/09/13 07:03:48;;;;;;;4.80;1.42;;;;;;;15.66;100.00;101451.84;5006216;28;20025;-82
2023/09/13 07:06:13;;;;;;;2.70;1.52;;;;;;;15.61;100.00;101455.88;5007033;28;20032;-82
2023/09/13 07:08:38;;;;;;;3.22;1.08;;;;;;;15.64;100.00;101462.72;4997957;28;20146;-82
2023/09/13 07:11:04;;;;;;;6.75;1.30;;;;;;;15.90;100.00;101470.09;5008545;28;20038;-82
2023/09/13 07:13:29;;;;;;;5.45;1.48;;;;;;;15.22;100.00;101467.84;5010266;28;20553;-82
2023/09/13 07:15:54;;;;;;;3.05;1.63;;;;;;;15.72;100.00;101480.53;4998218;28;20029;-83
2023/09/13 07:18:20;;;;;;;4.80;1.92;;;;;;;15.84;100.00;101494.28;5007120;28;20486;-83
2023/09/13 07:20:45;;;;;;;4.90;1.95;;;;;;;15.84;100.00;101505.56;5004109;28;20030;-83
2023/09/13 07:23:11;;;;;;;9.00;2.30;;;;;;;15.61;100.00;101512.31;5005546;28;20030;-83
2023/09/13 07:25:36;;;;;;;7.75;2.15;;;;;;;15.74;100.00;101518.44;5004354;28;20034;-82
2023/09/13 07:28:02;;;;;;;7.70;2.00;;;;;;;15.92;100.00;101521.31;5003642;28;20034;-83
2023/09/13 07:30:28;;;;;;;4.97;1.70;;;;;;;15.92;100.00;101523.34;5001463;28;20033;-83
2023/09/13 07:32:54;;;;;;;5.60;1.55;;;;;;;15.78;100.00;101513.63;4987468;28;20029;-82
2023/09/13 07:35:20;;;;;;;5.72;1.55;;;;;;;15.62;100.00;101499.84;5007570;28;20181;-82
2023/09/13 07:37:46;;;;;;;5.47;1.80;;;;;;;15.75;100.00;101507.97;5003792;28;20036;-83
2023/09/13 07:40:12;;;;;;;3.92;1.67;;;;;;;15.75;100.00;101496.69;5003010;28;20038;-82
2023/09/13 07:42:37;;;;;;;8.30;1.85;;;;;;;15.59;100.00;101500.63;4986527;28;20402;-83
2023/09/13 07:45:03;;;;;;;5.95;1.83;;;;;;;15.96;100.00;101502.38;5004503;28;20041;-81
2023/09/13 07:47:29;;;;;;;6.53;1.60;;;;;;;15.86;100.00;101486.22;5005090;28;20030;-81
2023/09/13 07:49:58;;;;;;;11.77;2.72;;;;;;;15.98;100.00;101483.03;5007736;28;20034;-80
2023/09/13 07:52:24;;;;;;;4.75;1.42;;;;;;;15.97;100.00;101494.72;5011156;28;20033;-81
2023/09/13 07:54:50;;;;;;;13.35;2.92;;;;;;;15.83;100.00;101492.66;4987902;28;20037;-81
2023/09/13 07:57:16;;;;;;;4.72;1.80;;;;;;;16.04;100.00;101492.72;4990414;28;20482;-80
2023/09/13 07:59:41;;;;;;;6.53;2.25;;;;;;;15.97;100.00;101494.72;5004468;28;20041;-80
2023/09/13 08:02:07;;;;;;;6.28;2.13;;;;;;;16.14;100.00;101498.78;5005657;28;20078;-81
2023/09/13 08:04:32;;;;;;;6.15;1.90;;;;;;;16.51;100.00;101520.19;5007083;28;20034;-81
2023/09/13 08:06:59;;;;;;;6.78;2.97;;;;;;;16.25;100.00;101527.84;4997035;28;20077;-81
2023/09/13 08:09:24;;;;;;;3.58;1.55;;;;;;;16.49;100.00;101543.22;5003306;28;20030;-81
2023/09/13 08:11:50;;;;;;;4.93;2.08;;;;;;;16.53;100.00;101535.53;4985629;28;20053;-81
2023/09/13 08:14:16;;;;;;;5.18;2.30;;;;;;;16.61;100.00;101531.50;5005737;28;20060;-81
2023/09/13 08:16:41;;;;;;;6.90;2.40;;;;;;;16.43;100.00;101531.50;5003484;28;20026;-81
2023/09/13 08:19:08;;;;;;;6.93;2.22;;;;;;;16.55;100.00;101532.28;5002059;28;20153;-81
2023/09/13 08:21:33;;;;;;;6.35;2.38;;;;;;;16.63;100.00;101520.59;4988394;28;20040;-81
2023/09/13 08:23:59;;;;;;;6.20;1.92;;;;;;;16.53;100.00;101506.44;5004011;28;20053;-82
2023/09/13 08:26:25;;;;;;;7.35;2.38;;;;;;;16.46;100.00;101525.06;5002015;28;20065;-81
2023/09/13 08:28:50;;;;;;;8.98;2.60;;;;;;;16.75;100.00;101532.72;5009350;28;20164;-81
2023/09/13 08:31:16;;;;;;;6.97;2.60;;;;;;;16.51;100.00;101531.47;5003981;28;20073;-81
2023/09/13 08:33:42;;;;;;;7.60;2.30;;;;;;;16.51;100.00;101534.31;5000019;28;20022;-81
2023/09/13 08:36:08;;;;;;;5.13;2.33;;;;;;;16.40;100.00;101554.91;4993579;28;20030;-81
2023/09/13 08:38:33;;;;;;;7.95;1.67;;;;;;;16.49;100.00;101567.84;5005047;28;20030;-81
2023/09/13 08:40:59;;;;;;;7.70;2.20;;;;;;;16.30;100.00;101558.53;4982674;28;20552;-81
2023/09/13 08:43:25;;;;;;;5.35;1.90;;;;;;;16.53;100.00;101569.44;5001467;28;20545;-81
2023/09/13 08:45:53;;;;;;;7.72;1.92;;;;;;;16.86;100.00;101593.72;5006072;28;20034;-81
2023/09/13 08:48:19;;;;;;;7.47;2.17;;;;;;;17.06;100.00;101605.41;5003855;28;20068;-81
2023/09/13 08:50:47;;;;;;;3.70;2.08;;;;;;;17.09;100.00;101611.47;4989303;28;20034;-81
2023/09/13 08:53:14;;;;;;;9.05;2.25;;;;;;;17.00;100.00;101611.91;4991008;28;20076;-81
2023/09/13 08:55:41;;;;;;;6.35;2.45;;;;;;;16.89;100.00;101626.03;4992348;28;20034;-81
2023/09/13 08:58:06;;;;;;;5.00;1.80;;;;;;;17.10;100.00;101639.38;4999043;28;20658;-81
2023/09/13 09:00:37;;;;;;;5.38;1.95;;;;;;;17.00;100.00;101645.84;4982285;28;20033;-81
2023/09/13 09:03:05;;;;;;;7.35;2.33;;;;;;;16.82;100.00;101651.47;4989041;28;20030;-82
2023/09/13 09:05:32;;;;;;;5.35;2.00;;;;;;;16.88;100.00;101666.03;4994104;28;20034;-81
2023/09/13 09:07:59;;;;;;;7.90;2.45;;;;;;;16.80;100.00;101668.00;4998000;28;20486;-81
2023/09/13 09:10:25;;;;;;;3.20;1.67;;;;;;;17.00;100.00;101660.78;4994732;28;20554;-81
2023/09/13 09:12:55;;;;;;;8.07;2.33;;;;;;;17.40;100.00;101677.75;4980771;28;20206;-84
2023/09/13 09:15:23;;;;;;;5.80;2.25;;;;;;;17.51;100.00;101684.19;5004400;28;20030;-85
2023/09/13 09:17:49;;;;;;;5.05;2.13;;;;;;;17.49;100.00;101689.44;4987448;28;20041;-85
2023/09/13 09:20:15;;;;;;;10.68;2.22;;;;;;;17.55;100.00;101695.50;5005740;28;20171;-85
2023/09/13 09:22:41;;;;;;;6.60;2.10;;;;;;;17.52;100.00;101701.97;4987990;28;20116;-84
2023/09/13 09:25:11;;;;;;;7.78;2.10;;;;;;;17.58;100.00;101706.84;4987127;28;20076;-85
2023/09/13 09:27:38;;;;;;;8.55;2.08;;;;;;;17.50;100.00;101699.56;4988687;28;20072;-84
2023/09/13 09:30:06;;;;;;;5.20;2.50;;;;;;;17.41;100.00;101700.00;4986821;28;20033;-85
2023/09/13 09:32:33;;;;;;;7.78;1.83;;;;;;;17.46;100.00;101710.09;4987013;28;20461;-85
2023/09/13 09:34:59;;;;;;;3.28;1.95;;;;;;;17.43;100.00;101705.22;5008556;28;20022;-86
2023/09/13 09:37:32;;;;;;;7.18;2.28;;;;;;;17.26;100.00;101684.22;5009947;28;20771;-87
2023/09/13 09:39:58;;;;;;;6.78;1.90;;;;;;;17.41;100.00;101707.66;5003081;28;20036;-84
2023/09/13 09:42:24;;;;;;;5.07;1.45;;;;;;;17.55;100.00;101715.31;5003009;28;20033;-86
2023/09/13 09:44:50;;;;;;;3.95;1.45;;;;;;;17.62;100.00;101721.78;5010071;28;20445;-85
2023/09/13 09:47:16;;;;;;;6.60;1.45;;;;;;;17.55;100.00;101733.13;4989654;28;20056;-86
2023/09/13 09:49:44;;;;;;;5.47;2.90;;;;;;;17.53;100.00;101721.38;4992633;28;20029;-85
2023/09/13 09:52:10;;;;;;;6.07;1.90;;;;;;;17.50;100.00;101730.72;4990912;28;20397;-85
2023/09/13 09:54:37;;;;;;;5.72;1.45;;;;;;;17.48;100.00;101730.31;5005805;28;20128;-84
2023/09/13 09:57:04;;;;;;;5.55;1.55;;;;;;;17.45;100.00;101737.56;5008419;28;20372;-85
2023/09/13 09:59:30;;;;;;;4.03;1.50;;;;;;;17.57;100.00;101739.19;5005467;28;20025;-84
2023/09/13 10:01:59;;;;;;;3.22;1.33;;;;;;;17.56;100.00;101734.75;4985886;28;20536;-85
2023/09/13 10:04:26;;;;;;;5.22;1.15;;;;;;;17.72;100.00;101739.16;5001972;28;20036;-84
2023/09/13 10:07:03;;;;;;;3.13;1.20;;;;;;;17.75;100.00;101741.19;4995111;28;20030;-84
2023/09/13 10:09:45;;;;;;;3.13;1.35;;;;;;;17.79;100.00;101739.16;5005175;28;20366;-85
2023/09/13 10:12:12;;;;;;;5.45;1.30;;;;;;;17.80;100.00;101746.44;4982544;28;20042;-84
2023/09/13 10:14:43;;;;;;;4.95;1.63;;;;;;;17.72;100.00;101742.00;5003066;28;20050;-86
2023/09/13 10:17:09;;;;;;;2.05;1.00;;;;;;;17.64;100.00;101744.81;4978330;28;20048;-86
2023/09/13 10:19:35;;;;;;;3.17;1.25;;;;;;;17.63;100.00;101743.22;4983354;28;20026;-85
2023/09/13 10:22:01;;;;;;;4.47;1.60;;;;;;;17.71;100.00;101740.38;5005234;28;20046;-84
2023/09/13 10:24:47;;;;;;;4.25;1.58;;;;;;;17.77;100.00;101739.56;5007329;28;20497;-86
2023/09/13 10:27:13;;;;;;;3.75;1.45;;;;;;;17.95;100.00;101750.88;5009224;28;20061;-86
2023/09/13 10:29:45;;;;;;;6.13;1.63;;;;;;;17.97;100.00;101761.81;5000118;28;20091;-87
2023/09/13 10:32:19;;;;;;;7.43;1.52;;;;;;;17.87;100.00;101757.78;5003299;28;20104;-86
2023/09/13 10:34:50;;;;;;;4.43;1.70;;;;;;;17.76;100.00;101751.31;4990681;28;20057;-88
2023/09/13 10:37:44;;;;;;;4.97;1.53;;;;;;;17.95;100.00;101765.06;4991874;28;20065;-85
2023/09/13 10:40:13;;;;;;;4.43;1.83;;;;;;;18.20;100.00;101764.19;4991386;28;20774;-87
2023/09/13 10:42:40;;;;;;;6.30;1.38;;;;;;;18.20;100.00;101765.00;5009168;28;20367;-86
2023/09/13 10:45:10;;;;;;;1.67;1.20;;;;;;;18.08;100.00;101782.41;4998452;28;20030;-88
2023/09/13 10:47:37;;;;;;;4.10;1.10;;;;;;;17.92;100.00;101788.53;5004141;28;20904;-88
2023/09/13 10:50:03;;;;;;;7.32;1.55;;;;;;;17.71;100.00;101791.34;5004517;28;20029;-87
2023/09/13 10:52:31;;;;;;;3.75;1.33;;;;;;;17.44;100.00;101798.22;4987243;28;20062;-87
2023/09/13 10:54:58;;;;;;;8.60;1.27;;;;;;;17.57;100.00;101795.78;4993793;28;20064;-87
2023/09/13 10:57:25;;;;;;;2.05;1.23;;;;;;;17.67;100.00;101806.31;5003403;28;20044;-87
2023/09/13 10:59:52;;;;;;;3.13;1.35;;;;;;;17.59;100.00;101799.03;4985983;28;20044;-87
2023/09/13 11:02:21;;;;;;;4.32;1.33;;;;;;;17.44;100.00;101795.38;5003543;28;20025;-87
2023/09/13 11:04:47;;;;;;;5.18;1.65;;;;;;;17.42;100.00;101797.00;5001847;28;20053;-87
2023/09/13 11:07:14;;;;;;;4.22;1.60;;;;;;;17.31;100.00;101805.50;4983023;28;20053;-88
2023/09/13 11:09:40;;;;;;;3.53;1.35;;;;;;;17.47;100.00;101802.25;5017694;28;20489;-87
2023/09/13 11:12:05;;;;;;;5.38;1.70;;;;;;;17.55;100.00;101818.03;4988184;28;20030;-87